createdAt,value
2018-08-19T00:02:22.999Z,21.00
2018-08-19T00:05:07.190Z,21.00
2018-08-19T00:07:36.520Z,20.84
2018-08-19T00:10:06.749Z,21.09
2018-08-19T00:12:40.827Z,21.02
2018-08-19T00:15:10.154Z,20.75
2018-08-19T00:17:39.547Z,20.81
2018-08-19T00:20:12.003Z,20.90
2018-08-19T00:22:41.370Z,20.80
2018-08-19T00:25:16.598Z,20.83
2018-08-19T00:27:46.055Z,20.81
2018-08-19T00:30:15.374Z,20.90
2018-08-19T00:32:44.768Z,20.82
2018-08-19T00:35:14.105Z,20.75
2018-08-19T00:37:43.491Z,20.65
2018-08-19T00:40:12.834Z,20.76
2018-08-19T00:42:44.741Z,20.88
2018-08-19T00:45:15.273Z,20.74
2018-08-19T00:47:44.626Z,20.74
2018-08-19T00:50:13.923Z,20.56
2018-08-19T00:52:44.141Z,20.47
2018-08-19T00:55:13.404Z,20.68
2018-08-19T00:57:45.070Z,20.56
2018-08-19T01:00:14.375Z,20.80
2018-08-19T01:02:43.662Z,20.60
2018-08-19T01:05:12.958Z,20.82
2018-08-19T01:07:42.279Z,20.94
2018-08-19T01:10:11.623Z,20.83
2018-08-19T01:12:41.166Z,20.72
2018-08-19T01:15:13.107Z,20.69
2018-08-19T01:17:44.355Z,20.69
2018-08-19T01:20:21.063Z,20.75
2018-08-19T01:22:50.433Z,20.74
2018-08-19T01:25:19.753Z,20.72
2018-08-19T01:27:49.045Z,20.57
2018-08-19T01:30:21.191Z,20.63
2018-08-19T01:32:50.509Z,20.66
2018-08-19T01:35:27.050Z,20.43
2018-08-19T01:37:56.443Z,20.59
2018-08-19T01:40:25.742Z,20.55
2018-08-19T01:42:55.051Z,20.41
2018-08-19T01:45:24.354Z,20.12
2018-08-19T01:47:53.633Z,20.10
2018-08-19T01:50:23.567Z,20.06
2018-08-19T01:52:53.170Z,19.95
2018-08-19T01:55:22.447Z,20.03
2018-08-19T01:57:51.734Z,19.94
2018-08-19T02:00:20.987Z,19.85
2018-08-19T02:03:02.159Z,19.76
2018-08-19T02:05:31.520Z,19.65
2018-08-19T02:08:02.458Z,19.40
2018-08-19T02:10:33.303Z,19.38
2018-08-19T02:13:03.219Z,19.29
2018-08-19T02:15:33.412Z,19.33
2018-08-19T02:18:04.234Z,19.41
2018-08-19T02:20:40.315Z,19.46
2018-08-19T02:23:11.433Z,19.38
2018-08-19T02:25:44.192Z,19.25
2018-08-19T02:28:14.674Z,19.21
2018-08-19T02:31:01.987Z,19.08
2018-08-19T02:33:34.400Z,19.07
2018-08-19T02:36:05.524Z,19.12
2018-08-19T02:38:35.571Z,19.15
2018-08-19T02:41:05.795Z,19.08
2018-08-19T02:43:37.627Z,18.98
2018-08-19T02:46:06.988Z,18.87
2018-08-19T02:48:47.419Z,18.62
2018-08-19T02:51:17.899Z,18.46
2018-08-19T02:53:48.306Z,18.49
2018-08-19T02:56:18.450Z,18.49
2018-08-19T02:58:48.464Z,18.25
2018-08-19T03:01:18.732Z,18.42
2018-08-19T03:03:48.040Z,18.08
2018-08-19T03:06:17.345Z,18.22
2018-08-19T03:08:56.584Z,17.86
2018-08-19T03:11:26.940Z,17.67
2018-08-19T03:13:57.111Z,17.57
2018-08-19T03:16:26.382Z,17.58
2018-08-19T03:18:55.690Z,17.69
2018-08-19T03:21:25.482Z,17.54
2018-08-19T03:23:54.845Z,17.37
2018-08-19T03:26:24.163Z,17.41
2018-08-19T03:28:53.440Z,17.48
2018-08-19T03:31:22.772Z,17.49
2018-08-19T03:33:52.040Z,17.60
2018-08-19T03:36:21.373Z,17.67
2018-08-19T03:38:50.637Z,17.56
2018-08-19T03:41:19.949Z,17.53
2018-08-19T03:43:54.526Z,17.14
2018-08-19T03:46:23.756Z,17.20
2018-08-19T03:48:53.042Z,17.28
2018-08-19T03:51:22.339Z,17.27
2018-08-19T03:53:51.793Z,17.33
2018-08-19T03:56:27.696Z,17.19
2018-08-19T03:58:58.607Z,17.09
2018-08-19T04:01:42.985Z,17.07
2018-08-19T04:04:14.639Z,17.08
2018-08-19T04:06:44.423Z,17.23
2018-08-19T04:09:13.758Z,17.18
2018-08-19T04:11:43.063Z,16.99
2018-08-19T04:14:28.578Z,17.18
2018-08-19T04:16:59.743Z,17.27
2018-08-19T04:19:29.731Z,17.00
2018-08-19T04:22:01.979Z,17.09
2018-08-19T04:24:31.927Z,17.18
2018-08-19T04:27:08.346Z,17.27
2018-08-19T04:29:38.108Z,17.41
2018-08-19T04:32:16.374Z,17.47
2018-08-19T04:34:46.073Z,17.62
2018-08-19T04:37:15.479Z,17.61
2018-08-19T04:39:46.727Z,17.43
2018-08-19T04:42:20.005Z,17.47
2018-08-19T04:44:49.255Z,17.51
2018-08-19T04:47:31.149Z,17.67
2018-08-19T04:50:00.975Z,17.70
2018-08-19T04:52:32.192Z,17.88
2018-08-19T04:55:02.098Z,17.80
2018-08-19T04:57:32.026Z,17.93
2018-08-19T05:00:01.470Z,18.16
2018-08-19T05:02:30.763Z,18.06
2018-08-19T05:05:00.055Z,18.00
2018-08-19T05:07:29.531Z,17.80
2018-08-19T05:09:59.166Z,17.77
2018-08-19T05:12:28.472Z,17.80
2018-08-19T05:14:58.384Z,17.94
2018-08-19T05:17:27.777Z,17.90
2018-08-19T05:20:16.374Z,17.99
2018-08-19T05:22:45.706Z,17.91
2018-08-19T05:25:14.998Z,17.94
2018-08-19T05:27:45.881Z,18.11
2018-08-19T05:30:15.385Z,18.37
2018-08-19T05:32:48.791Z,18.50
2018-08-19T05:35:18.156Z,18.67
2018-08-19T05:37:47.518Z,18.93
2018-08-19T05:40:16.854Z,18.89
2018-08-19T05:42:46.235Z,18.97
2018-08-19T05:45:16.561Z,19.15
2018-08-19T05:48:01.733Z,19.41
2018-08-19T05:50:31.049Z,19.48
2018-08-19T05:53:01.443Z,19.54
2018-08-19T05:55:30.956Z,19.61
2018-08-19T05:58:00.247Z,19.54
2018-08-19T06:00:29.548Z,19.62
2018-08-19T06:03:00.966Z,19.82
2018-08-19T06:05:30.626Z,19.84
2018-08-19T06:08:08.043Z,19.99
2018-08-19T06:10:37.313Z,20.14
2018-08-19T06:13:07.855Z,20.18
2018-08-19T06:15:37.340Z,20.21
2018-08-19T06:18:06.864Z,20.15
2018-08-19T06:20:36.169Z,20.39
2018-08-19T06:23:05.536Z,20.48
2018-08-19T06:25:34.883Z,20.74
2018-08-19T06:28:04.166Z,21.00
2018-08-19T06:30:33.607Z,20.93
2018-08-19T06:33:02.887Z,20.95
2018-08-19T06:35:32.279Z,20.95
2018-08-19T06:38:01.663Z,20.87
2018-08-19T06:40:30.999Z,21.00
2018-08-19T06:43:00.351Z,21.12
2018-08-19T06:45:29.699Z,21.18
2018-08-19T06:47:59.067Z,21.27
2018-08-19T06:50:32.434Z,21.11
2018-08-19T06:53:01.747Z,21.44
2018-08-19T06:55:31.054Z,21.54
2018-08-19T06:58:01.022Z,21.53
2018-08-19T07:00:31.753Z,21.48
2018-08-19T07:03:04.188Z,21.36
2018-08-19T07:05:34.451Z,21.27
2018-08-19T07:08:03.806Z,21.60
2018-08-19T07:10:39.606Z,21.45
2018-08-19T07:13:12.011Z,21.73
2018-08-19T07:15:42.476Z,21.63
2018-08-19T07:18:14.626Z,21.74
2018-08-19T07:20:44.780Z,21.92
2018-08-19T07:23:14.381Z,21.88
2018-08-19T07:25:44.846Z,21.86
2018-08-19T07:28:16.348Z,21.58
2018-08-19T07:30:45.695Z,21.80
2018-08-19T07:33:15.351Z,21.92
2018-08-19T07:35:44.666Z,22.17
2018-08-19T07:38:13.964Z,22.13
2018-08-19T07:40:43.251Z,22.31
2018-08-19T07:43:12.583Z,22.29
2018-08-19T07:45:41.960Z,22.63
2018-08-19T07:48:11.252Z,22.75
2018-08-19T07:50:41.114Z,22.91
2018-08-19T07:53:11.527Z,22.90
2018-08-19T07:55:40.815Z,22.86
2018-08-19T07:58:10.140Z,22.93
2018-08-19T08:00:40.244Z,23.23
2018-08-19T08:03:09.995Z,23.65
2018-08-19T08:05:44.841Z,24.22
2018-08-19T08:08:14.148Z,24.13
2018-08-19T08:10:43.578Z,24.50
2018-08-19T08:13:13.886Z,25.10
2018-08-19T08:15:48.577Z,25.15
2018-08-19T08:18:17.999Z,25.41
2018-08-19T08:20:47.347Z,25.60
2018-08-19T08:23:25.001Z,25.71
2018-08-19T08:25:54.532Z,25.42
2018-08-19T08:28:23.970Z,25.62
2018-08-19T08:30:53.620Z,24.96
2018-08-19T08:33:22.938Z,25.47
2018-08-19T08:35:55.447Z,25.39
2018-08-19T08:38:24.780Z,25.07
2018-08-19T08:40:54.301Z,25.58
2018-08-19T08:43:23.803Z,25.52
2018-08-19T08:45:55.806Z,25.78
2018-08-19T08:48:25.235Z,25.94
2018-08-19T08:50:54.549Z,25.97
2018-08-19T08:53:29.054Z,26.48
2018-08-19T08:55:58.456Z,26.33
2018-08-19T08:58:27.757Z,26.13
2018-08-19T09:00:57.400Z,26.16
2018-08-19T09:03:26.731Z,26.57
2018-08-19T09:05:56.128Z,26.75
2018-08-19T09:08:25.636Z,26.31
2018-08-19T09:10:55.141Z,26.31
2018-08-19T09:13:24.628Z,26.88
2018-08-19T09:15:54.940Z,27.00
2018-08-19T09:18:24.235Z,27.30
2018-08-19T09:20:53.666Z,26.02
2018-08-19T09:23:23.352Z,26.54
2018-08-19T09:25:52.809Z,26.98
2018-08-19T09:28:22.532Z,27.31
2018-08-19T09:30:51.892Z,26.96
2018-08-19T09:33:21.205Z,27.20
2018-08-19T09:35:50.532Z,27.77
2018-08-19T09:38:22.550Z,27.88
2018-08-19T09:40:51.987Z,28.11
2018-08-19T09:43:21.340Z,27.99
2018-08-19T09:45:50.702Z,26.73
2018-08-19T09:48:20.057Z,26.95
2018-08-19T09:50:49.349Z,27.02
2018-08-19T09:53:18.650Z,26.50
2018-08-19T09:55:55.430Z,26.48
2018-08-19T09:58:24.846Z,26.81
2018-08-19T10:00:59.436Z,27.25
2018-08-19T10:03:30.739Z,27.08
2018-08-19T10:06:00.104Z,27.50
2018-08-19T10:08:29.433Z,28.16
2018-08-19T10:10:58.859Z,27.94
2018-08-19T10:13:28.227Z,28.24
2018-08-19T10:15:57.644Z,28.27
2018-08-19T10:18:27.220Z,28.77
2018-08-19T10:20:57.679Z,28.87
2018-08-19T10:23:27.039Z,28.58
2018-08-19T10:25:56.547Z,28.87
2018-08-19T10:28:25.824Z,29.07
2018-08-19T10:30:58.990Z,29.68
2018-08-19T10:33:28.604Z,30.56
2018-08-19T10:36:02.113Z,30.42
2018-08-19T10:38:31.515Z,30.41
2018-08-19T10:41:06.284Z,30.51
2018-08-19T10:43:35.686Z,30.40
2018-08-19T10:46:05.120Z,29.96
2018-08-19T10:48:34.458Z,30.10
2018-08-19T10:51:04.090Z,30.15
2018-08-19T10:53:33.642Z,30.75
2018-08-19T10:56:03.892Z,30.42
2018-08-19T10:58:33.437Z,30.33
2018-08-19T11:01:02.708Z,30.90
2018-08-19T11:03:32.340Z,30.53
2018-08-19T11:06:01.926Z,30.03
2018-08-19T11:08:31.268Z,29.80
2018-08-19T11:11:00.948Z,29.49
2018-08-19T11:13:30.343Z,30.29
2018-08-19T11:15:59.707Z,30.16
2018-08-19T11:18:37.635Z,30.24
2018-08-19T11:21:09.006Z,30.42
2018-08-19T11:23:40.995Z,31.24
2018-08-19T11:26:11.343Z,31.73
2018-08-19T11:28:58.182Z,31.99
2018-08-19T11:31:30.746Z,32.43
2018-08-19T11:34:04.595Z,32.27
2018-08-19T11:36:39.262Z,32.63
2018-08-19T11:39:10.652Z,33.34
2018-08-19T11:41:40.147Z,33.30
2018-08-19T11:44:12.096Z,33.50
2018-08-19T11:46:41.500Z,33.38
2018-08-19T11:49:12.093Z,32.16
2018-08-19T11:51:50.608Z,32.20
2018-08-19T11:54:20.856Z,32.50
2018-08-19T11:56:57.807Z,32.26
2018-08-19T11:59:32.528Z,31.65
2018-08-19T12:02:02.229Z,31.76
2018-08-19T12:04:31.567Z,32.08
2018-08-19T12:07:00.914Z,32.02
2018-08-19T12:09:30.509Z,32.47
2018-08-19T12:11:59.922Z,32.42
2018-08-19T12:14:32.943Z,32.79
2018-08-19T12:17:04.871Z,32.47
2018-08-19T12:19:35.092Z,31.84
2018-08-19T12:22:05.491Z,31.67
2018-08-19T12:24:47.625Z,32.11
2018-08-19T12:27:19.467Z,31.74
2018-08-19T12:29:48.789Z,31.72
2018-08-19T12:32:24.719Z,30.84
2018-08-19T12:34:55.498Z,31.36
2018-08-19T12:37:26.197Z,31.57
2018-08-19T12:39:56.401Z,32.19
2018-08-19T12:42:26.311Z,31.91
2018-08-19T12:45:06.495Z,32.16
2018-08-19T12:47:36.843Z,32.45
2018-08-19T12:50:13.397Z,32.21
2018-08-19T12:52:43.382Z,32.08
2018-08-19T12:55:16.166Z,32.04
2018-08-19T12:57:46.011Z,31.94
2018-08-19T13:00:32.722Z,31.91
2018-08-19T13:03:02.438Z,32.78
2018-08-19T13:05:32.465Z,32.63
2018-08-19T13:08:02.513Z,32.49
2018-08-19T13:10:37.811Z,32.43
2018-08-19T13:13:09.984Z,31.95
2018-08-19T13:15:39.400Z,32.40
2018-08-19T13:18:09.442Z,32.23
2018-08-19T13:20:39.158Z,31.78
2018-08-19T13:23:08.637Z,31.89
2018-08-19T13:25:38.045Z,32.11
2018-08-19T13:28:07.448Z,31.37
2018-08-19T13:30:36.815Z,30.82
2018-08-19T13:33:06.232Z,31.71
2018-08-19T13:35:35.862Z,30.80
2018-08-19T13:38:05.623Z,30.74
2018-08-19T13:40:34.983Z,30.50
2018-08-19T13:43:04.401Z,31.14
2018-08-19T13:45:33.752Z,31.12
2018-08-19T13:48:03.122Z,31.31
2018-08-19T13:50:32.504Z,31.22
2018-08-19T13:53:01.843Z,31.56
2018-08-19T13:55:31.222Z,31.84
2018-08-19T13:58:00.994Z,32.06
2018-08-19T14:00:33.366Z,31.68
2018-08-19T14:03:02.817Z,31.92
2018-08-19T14:05:32.202Z,31.21
2018-08-19T14:08:01.595Z,30.82
2018-08-19T14:10:31.351Z,30.96
2018-08-19T14:13:00.713Z,31.28
2018-08-19T14:15:30.021Z,31.41
2018-08-19T14:17:59.458Z,31.24
2018-08-19T14:20:28.861Z,31.77
2018-08-19T14:22:58.299Z,31.88
2018-08-19T14:25:27.995Z,31.15
2018-08-19T14:27:57.349Z,31.20
2018-08-19T14:30:26.756Z,31.60
2018-08-19T14:32:56.211Z,31.04
2018-08-19T14:35:25.576Z,30.62
2018-08-19T14:37:54.987Z,30.63
2018-08-19T14:40:24.753Z,31.06
2018-08-19T14:42:54.067Z,31.19
2018-08-19T14:45:23.456Z,31.34
2018-08-19T14:47:52.891Z,30.85
2018-08-19T14:50:22.262Z,30.84
2018-08-19T14:52:51.575Z,30.74
2018-08-19T14:55:20.929Z,31.21
2018-08-19T14:57:50.259Z,30.84
2018-08-19T15:00:19.603Z,31.34
2018-08-19T15:02:49.486Z,31.08
2018-08-19T15:05:20.626Z,31.28
2018-08-19T15:07:50.550Z,31.67
2018-08-19T15:10:24.332Z,32.12
2018-08-19T15:12:54.556Z,31.11
2018-08-19T15:15:23.910Z,31.06
2018-08-19T15:18:00.495Z,31.03
2018-08-19T15:20:34.234Z,31.22
2018-08-19T15:23:21.430Z,31.13
2018-08-19T15:25:50.676Z,31.19
2018-08-19T15:28:19.948Z,31.23
2018-08-19T15:30:49.334Z,31.18
2018-08-19T15:33:18.635Z,31.35
2018-08-19T15:35:47.961Z,31.31
2018-08-19T15:38:17.474Z,31.21
2018-08-19T15:40:49.267Z,30.71
2018-08-19T15:43:19.002Z,30.94
2018-08-19T15:45:48.333Z,31.10
2018-08-19T15:48:17.750Z,31.07
2018-08-19T15:50:47.126Z,30.84
2018-08-19T15:53:18.694Z,30.78
2018-08-19T15:55:48.299Z,30.25
2018-08-19T15:58:17.626Z,30.43
2018-08-19T16:00:46.963Z,30.19
2018-08-19T16:03:16.335Z,30.27
2018-08-19T16:05:45.806Z,30.45
2018-08-19T16:08:15.098Z,30.59
2018-08-19T16:10:44.574Z,30.67
2018-08-19T16:13:14.002Z,30.61
2018-08-19T16:15:43.333Z,30.62
2018-08-19T16:18:12.700Z,30.59
2018-08-19T16:20:44.952Z,30.40
2018-08-19T16:23:14.373Z,30.37
2018-08-19T16:25:43.750Z,30.43
2018-08-19T16:28:13.103Z,30.45
2018-08-19T16:30:42.639Z,30.55
2018-08-19T16:33:12.106Z,30.41
2018-08-19T16:35:41.597Z,30.62
2018-08-19T16:38:11.508Z,30.83
2018-08-19T16:40:40.872Z,30.84
2018-08-19T16:43:10.189Z,30.89
2018-08-19T16:45:39.534Z,30.82
2018-08-19T16:48:09.558Z,30.75
2018-08-19T16:50:38.961Z,30.41
2018-08-19T16:53:08.316Z,30.06
2018-08-19T16:55:37.761Z,30.02
2018-08-19T16:58:07.138Z,30.05
2018-08-19T17:00:36.564Z,30.11
2018-08-19T17:03:26.638Z,30.20
2018-08-19T17:05:56.544Z,29.97
2018-08-19T17:08:25.978Z,30.07
2018-08-19T17:10:55.283Z,29.79
2018-08-19T17:13:24.740Z,29.65
2018-08-19T17:15:54.250Z,29.94
2018-08-19T17:18:23.583Z,30.08
2018-08-19T17:20:53.214Z,30.00
2018-08-19T17:23:24.017Z,29.50
2018-08-19T17:25:53.385Z,29.56
2018-08-19T17:28:25.187Z,29.49
2018-08-19T17:30:55.483Z,29.56
2018-08-19T17:33:28.743Z,29.74
2018-08-19T17:35:58.966Z,29.68
2018-08-19T17:38:31.678Z,29.77
2018-08-19T17:41:01.343Z,29.55
2018-08-19T17:43:39.660Z,29.43
2018-08-19T17:46:12.220Z,29.41
2018-08-19T17:48:42.773Z,29.11
2018-08-19T17:51:30.518Z,28.94
2018-08-19T17:54:00.076Z,28.77
2018-08-19T17:56:29.857Z,28.98
2018-08-19T17:59:00.314Z,29.03
2018-08-19T18:01:29.745Z,28.77
2018-08-19T18:03:59.111Z,28.77
2018-08-19T18:06:28.590Z,28.46
2018-08-19T18:08:57.955Z,28.17
2018-08-19T18:11:27.753Z,28.38
2018-08-19T18:14:04.145Z,28.41
2018-08-19T18:16:33.473Z,28.46
2018-08-19T18:19:03.777Z,28.39
2018-08-19T18:21:37.740Z,28.28
2018-08-19T18:24:07.482Z,28.18
2018-08-19T18:26:36.844Z,28.09
2018-08-19T18:29:06.725Z,28.08
2018-08-19T18:31:36.062Z,28.09
2018-08-19T18:34:08.662Z,27.98
2018-08-19T18:36:37.981Z,27.89
2018-08-19T18:39:10.480Z,27.84
2018-08-19T18:41:43.720Z,27.89
2018-08-19T18:44:14.273Z,27.81
2018-08-19T18:46:43.608Z,27.65
2018-08-19T18:49:15.562Z,27.59
2018-08-19T18:51:47.281Z,27.51
2018-08-19T18:54:32.799Z,27.56
2018-08-19T18:57:08.470Z,27.33
2018-08-19T18:59:43.423Z,27.32
2018-08-19T19:02:12.801Z,27.30
2018-08-19T19:04:42.148Z,27.08
2018-08-19T19:07:11.618Z,26.93
2018-08-19T19:09:50.076Z,27.05
2018-08-19T19:12:23.376Z,26.98
2018-08-19T19:14:52.804Z,26.86
2018-08-19T19:17:22.147Z,27.02
2018-08-19T19:19:52.009Z,26.98
2018-08-19T19:22:21.421Z,27.01
2018-08-19T19:24:53.039Z,26.84
2018-08-19T19:27:22.540Z,26.75
2018-08-19T19:29:57.038Z,26.66
2018-08-19T19:32:26.420Z,26.70
2018-08-19T19:34:56.207Z,26.77
2018-08-19T19:37:25.756Z,26.67
2018-08-19T19:40:00.359Z,26.59
2018-08-19T19:42:29.917Z,26.60
2018-08-19T19:44:59.584Z,26.39
2018-08-19T19:47:29.070Z,26.35
2018-08-19T19:49:59.586Z,26.14
2018-08-19T19:52:29.714Z,26.15
2018-08-19T19:54:59.366Z,26.01
2018-08-19T19:57:29.122Z,25.84
2018-08-19T19:59:58.674Z,25.82
2018-08-19T20:02:29.795Z,25.79
2018-08-19T20:04:59.890Z,25.89
2018-08-19T20:07:29.582Z,25.77
2018-08-19T20:09:59.116Z,25.77
2018-08-19T20:12:29.793Z,25.68
2018-08-19T20:15:01.455Z,25.56
2018-08-19T20:17:30.908Z,25.66
2018-08-19T20:20:01.097Z,25.51
2018-08-19T20:22:30.764Z,25.51
2018-08-19T20:25:00.120Z,25.53
2018-08-19T20:27:29.926Z,25.57
2018-08-19T20:29:59.245Z,25.42
2018-08-19T20:32:28.697Z,25.52
2018-08-19T20:34:58.072Z,25.34
2018-08-19T20:37:28.932Z,25.34
2018-08-19T20:39:58.456Z,25.19
2018-08-19T20:42:28.221Z,25.06
2018-08-19T20:44:57.794Z,25.04
2018-08-19T20:47:27.132Z,25.03
2018-08-19T20:49:56.808Z,25.03
2018-08-19T20:52:43.046Z,24.91
2018-08-19T20:55:13.771Z,24.93
2018-08-19T20:57:44.676Z,24.88
2018-08-19T21:00:14.110Z,25.00
2018-08-19T21:02:43.456Z,24.93
2018-08-19T21:05:13.058Z,24.73
2018-08-19T21:07:44.303Z,24.75
2018-08-19T21:10:13.777Z,24.58
2018-08-19T21:12:43.118Z,24.64
2018-08-19T21:15:12.427Z,24.63
2018-08-19T21:17:41.829Z,24.63
2018-08-19T21:20:11.170Z,24.86
2018-08-19T21:22:41.041Z,24.85
2018-08-19T21:25:10.709Z,24.91
2018-08-19T21:27:40.587Z,25.01
2018-08-19T21:30:10.037Z,25.01
2018-08-19T21:32:39.456Z,24.87
2018-08-19T21:35:09.728Z,24.86
2018-08-19T21:37:39.255Z,24.83
2018-08-19T21:40:08.649Z,24.56
2018-08-19T21:42:50.955Z,24.56
2018-08-19T21:45:20.361Z,24.31
2018-08-19T21:47:50.030Z,24.24
2018-08-19T21:50:19.508Z,24.15
2018-08-19T21:53:10.424Z,24.21
2018-08-19T21:55:41.019Z,24.06
2018-08-19T21:58:11.090Z,24.21
2018-08-19T22:01:03.452Z,24.32
2018-08-19T22:03:38.095Z,24.06
2018-08-19T22:06:09.102Z,23.72
2018-08-19T22:08:38.443Z,23.84
2018-08-19T22:11:07.742Z,23.90
2018-08-19T22:13:37.551Z,23.94
2018-08-19T22:16:07.432Z,23.85
2018-08-19T22:18:36.703Z,23.66
2018-08-19T22:21:23.781Z,23.71
2018-08-19T22:23:56.646Z,23.73
2018-08-19T22:26:25.935Z,23.68
2018-08-19T22:29:11.752Z,23.67
2018-08-19T22:31:41.138Z,23.66
2018-08-19T22:34:10.402Z,23.60
2018-08-19T22:36:39.702Z,23.66
2018-08-19T22:39:11.140Z,23.58
2018-08-19T22:41:40.647Z,23.49
2018-08-19T22:44:10.043Z,23.51
2018-08-19T22:46:39.495Z,23.61
2018-08-19T22:49:09.080Z,23.57
2018-08-19T22:51:38.812Z,23.44
2018-08-19T22:54:08.870Z,23.38
2018-08-19T22:56:38.338Z,23.38
2018-08-19T22:59:07.747Z,23.48
2018-08-19T23:01:42.359Z,23.39
2018-08-19T23:04:11.692Z,23.39
2018-08-19T23:06:41.377Z,23.34
2018-08-19T23:09:10.870Z,23.38
2018-08-19T23:11:45.546Z,23.47
2018-08-19T23:14:31.774Z,23.41
2018-08-19T23:17:01.410Z,23.33
2018-08-19T23:19:30.754Z,23.32
2018-08-19T23:22:00.200Z,23.34
2018-08-19T23:24:29.830Z,23.29
2018-08-19T23:26:59.434Z,23.41
2018-08-19T23:29:29.994Z,23.50
2018-08-19T23:31:59.534Z,23.53
2018-08-19T23:34:29.007Z,23.65
2018-08-19T23:36:58.448Z,23.75
2018-08-19T23:39:27.866Z,23.70
2018-08-19T23:41:57.563Z,23.60
2018-08-19T23:44:26.982Z,23.50
2018-08-19T23:46:56.427Z,23.55
2018-08-19T23:49:25.846Z,23.52
2018-08-19T23:51:55.324Z,23.51
2018-08-19T23:54:24.828Z,23.38
2018-08-19T23:56:54.147Z,23.40
2018-08-19T23:59:27.580Z,23.28
